sensor_id;sensor_type;location;lat;lon;timestamp;P1;durP1;ratioP1;P2;durP2;ratioP2
5456;SDS011;2751;49.802;9.944;2022-07-19T00:00:09;3.93;;;2.83;;
5456;SDS011;2751;49.802;9.944;2022-07-19T00:02:40;3.73;;;3.00;;
5456;SDS011;2751;49.802;9.944;2022-07-19T00:05:08;3.60;;;2.67;;
5456;SDS011;2751;49.802;9.944;2022-07-19T00:07:35;4.23;;;3.47;;
5456;SDS011;2751;49.802;9.944;2022-07-19T00:10:03;6.50;;;3.23;;
5456;SDS011;2751;49.802;9.944;2022-07-19T00:12:31;3.20;;;2.90;;
5456;SDS011;2751;49.802;9.944;2022-07-19T00:14:58;3.47;;;3.20;;
5456;SDS011;2751;49.802;9.944;2022-07-19T00:17:25;6.73;;;3.30;;
5456;SDS011;2751;49.802;9.944;2022-07-19T00:19:54;5.03;;;3.17;;
5456;SDS011;2751;49.802;9.944;2022-07-19T00:22:21;3.83;;;2.90;;
5456;SDS011;2751;49.802;9.944;2022-07-19T00:24:47;8.90;;;3.40;;
5456;SDS011;2751;49.802;9.944;2022-07-19T00:27:14;3.97;;;3.20;;
5456;SDS011;2751;49.802;9.944;2022-07-19T00:29:41;4.00;;;3.27;;
5456;SDS011;2751;49.802;9.944;2022-07-19T00:32:08;6.53;;;3.20;;
5456;SDS011;2751;49.802;9.944;2022-07-19T00:34:35;8.90;;;3.40;;
5456;SDS011;2751;49.802;9.944;2022-07-19T00:37:03;7.60;;;3.73;;
5456;SDS011;2751;49.802;9.944;2022-07-19T00:39:30;5.60;;;3.40;;
5456;SDS011;2751;49.802;9.944;2022-07-19T00:41:57;5.57;;;3.50;;
5456;SDS011;2751;49.802;9.944;2022-07-19T00:44:24;4.60;;;3.80;;
5456;SDS011;2751;49.802;9.944;2022-07-19T00:46:51;5.00;;;3.70;;
5456;SDS011;2751;49.802;9.944;2022-07-19T00:49:18;6.87;;;3.43;;
5456;SDS011;2751;49.802;9.944;2022-07-19T00:51:45;6.00;;;3.87;;
5456;SDS011;2751;49.802;9.944;2022-07-19T00:54:14;11.13;;;3.67;;
5456;SDS011;2751;49.802;9.944;2022-07-19T00:56:43;17.13;;;4.53;;
5456;SDS011;2751;49.802;9.944;2022-07-19T00:59:13;3.30;;;3.00;;
5456;SDS011;2751;49.802;9.944;2022-07-19T01:01:41;4.93;;;2.43;;
5456;SDS011;2751;49.802;9.944;2022-07-19T01:04:09;11.20;;;4.37;;
5456;SDS011;2751;49.802;9.944;2022-07-19T01:06:37;5.70;;;3.40;;
5456;SDS011;2751;49.802;9.944;2022-07-19T01:09:04;7.37;;;4.00;;
5456;SDS011;2751;49.802;9.944;2022-07-19T01:11:32;6.00;;;3.73;;
5456;SDS011;2751;49.802;9.944;2022-07-19T01:13:59;7.93;;;3.60;;
5456;SDS011;2751;49.802;9.944;2022-07-19T01:16:26;7.00;;;2.93;;
5456;SDS011;2751;49.802;9.944;2022-07-19T01:18:53;7.40;;;3.77;;
5456;SDS011;2751;49.802;9.944;2022-07-19T01:21:23;6.60;;;3.47;;
5456;SDS011;2751;49.802;9.944;2022-07-19T01:23:51;5.43;;;3.33;;
5456;SDS011;2751;49.802;9.944;2022-07-19T01:26:18;5.90;;;3.73;;
5456;SDS011;2751;49.802;9.944;2022-07-19T01:28:46;4.93;;;3.47;;
5456;SDS011;2751;49.802;9.944;2022-07-19T01:31:13;7.80;;;3.00;;
5456;SDS011;2751;49.802;9.944;2022-07-19T01:33:40;5.60;;;3.13;;
5456;SDS011;2751;49.802;9.944;2022-07-19T01:36:08;4.17;;;3.40;;
5456;SDS011;2751;49.802;9.944;2022-07-19T01:38:36;3.70;;;3.37;;
5456;SDS011;2751;49.802;9.944;2022-07-19T01:41:04;3.93;;;3.03;;
5456;SDS011;2751;49.802;9.944;2022-07-19T01:43:31;6.40;;;3.20;;
5456;SDS011;2751;49.802;9.944;2022-07-19T01:45:58;6.73;;;3.57;;
5456;SDS011;2751;49.802;9.944;2022-07-19T01:48:25;8.23;;;3.27;;
5456;SDS011;2751;49.802;9.944;2022-07-19T01:50:52;6.23;;;3.63;;
5456;SDS011;2751;49.802;9.944;2022-07-19T01:53:19;4.73;;;2.83;;
5456;SDS011;2751;49.802;9.944;2022-07-19T01:55:47;5.13;;;2.90;;
5456;SDS011;2751;49.802;9.944;2022-07-19T01:58:14;3.67;;;3.27;;
5456;SDS011;2751;49.802;9.944;2022-07-19T02:00:41;7.73;;;3.50;;
5456;SDS011;2751;49.802;9.944;2022-07-19T02:03:08;8.70;;;3.60;;
5456;SDS011;2751;49.802;9.944;2022-07-19T02:05:35;9.97;;;3.60;;
5456;SDS011;2751;49.802;9.944;2022-07-19T02:08:02;6.80;;;3.20;;
5456;SDS011;2751;49.802;9.944;2022-07-19T02:10:29;4.97;;;3.07;;
5456;SDS011;2751;49.802;9.944;2022-07-19T02:12:58;4.30;;;3.10;;
5456;SDS011;2751;49.802;9.944;2022-07-19T02:15:25;3.90;;;2.97;;
5456;SDS011;2751;49.802;9.944;2022-07-19T02:17:52;4.40;;;2.83;;
5456;SDS011;2751;49.802;9.944;2022-07-19T02:20:19;6.57;;;3.20;;
5456;SDS011;2751;49.802;9.944;2022-07-19T02:22:46;8.07;;;3.03;;
5456;SDS011;2751;49.802;9.944;2022-07-19T02:25:13;6.07;;;3.00;;
5456;SDS011;2751;49.802;9.944;2022-07-19T02:27:40;3.13;;;2.90;;
5456;SDS011;2751;49.802;9.944;2022-07-19T02:30:09;4.90;;;3.37;;
5456;SDS011;2751;49.802;9.944;2022-07-19T02:32:37;6.43;;;3.37;;
5456;SDS011;2751;49.802;9.944;2022-07-19T02:35:05;7.70;;;3.83;;
5456;SDS011;2751;49.802;9.944;2022-07-19T02:37:33;6.87;;;3.20;;
5456;SDS011;2751;49.802;9.944;2022-07-19T02:40:00;5.30;;;3.30;;
5456;SDS011;2751;49.802;9.944;2022-07-19T02:42:27;4.83;;;2.83;;
5456;SDS011;2751;49.802;9.944;2022-07-19T02:44:54;3.70;;;3.07;;
5456;SDS011;2751;49.802;9.944;2022-07-19T02:47:22;6.00;;;3.07;;
5456;SDS011;2751;49.802;9.944;2022-07-19T02:49:49;5.60;;;2.90;;
5456;SDS011;2751;49.802;9.944;2022-07-19T02:52:16;3.47;;;3.17;;
5456;SDS011;2751;49.802;9.944;2022-07-19T02:54:43;3.67;;;3.33;;
5456;SDS011;2751;49.802;9.944;2022-07-19T02:57:10;6.20;;;3.03;;
5456;SDS011;2751;49.802;9.944;2022-07-19T02:59:37;6.53;;;2.90;;
5456;SDS011;2751;49.802;9.944;2022-07-19T03:02:04;4.10;;;3.10;;
5456;SDS011;2751;49.802;9.944;2022-07-19T03:04:32;5.70;;;3.13;;
5456;SDS011;2751;49.802;9.944;2022-07-19T03:06:59;6.13;;;2.93;;
5456;SDS011;2751;49.802;9.944;2022-07-19T03:09:26;5.90;;;3.20;;
5456;SDS011;2751;49.802;9.944;2022-07-19T03:11:53;8.63;;;2.87;;
5456;SDS011;2751;49.802;9.944;2022-07-19T03:14:20;4.23;;;2.77;;
5456;SDS011;2751;49.802;9.944;2022-07-19T03:16:47;2.80;;;2.60;;
5456;SDS011;2751;49.802;9.944;2022-07-19T03:19:15;4.20;;;2.87;;
5456;SDS011;2751;49.802;9.944;2022-07-19T03:21:43;4.00;;;2.67;;
5456;SDS011;2751;49.802;9.944;2022-07-19T03:24:10;3.73;;;3.20;;
5456;SDS011;2751;49.802;9.944;2022-07-19T03:26:37;5.03;;;2.97;;
5456;SDS011;2751;49.802;9.944;2022-07-19T03:29:04;3.03;;;2.57;;
5456;SDS011;2751;49.802;9.944;2022-07-19T03:31:31;10.20;;;2.90;;
5456;SDS011;2751;49.802;9.944;2022-07-19T03:33:58;4.63;;;3.47;;
5456;SDS011;2751;49.802;9.944;2022-07-19T03:36:24;7.50;;;2.80;;
5456;SDS011;2751;49.802;9.944;2022-07-19T03:38:53;9.87;;;3.03;;
5456;SDS011;2751;49.802;9.944;2022-07-19T03:41:21;3.27;;;2.97;;
5456;SDS011;2751;49.802;9.944;2022-07-19T03:43:48;4.53;;;2.73;;
5456;SDS011;2751;49.802;9.944;2022-07-19T03:46:15;4.90;;;2.87;;
5456;SDS011;2751;49.802;9.944;2022-07-19T03:48:43;3.80;;;3.37;;
5456;SDS011;2751;49.802;9.944;2022-07-19T03:51:10;8.33;;;3.00;;
5456;SDS011;2751;49.802;9.944;2022-07-19T03:53:37;6.93;;;2.97;;
5456;SDS011;2751;49.802;9.944;2022-07-19T03:56:05;3.33;;;3.00;;
5456;SDS011;2751;49.802;9.944;2022-07-19T03:58:32;5.07;;;2.80;;
5456;SDS011;2751;49.802;9.944;2022-07-19T04:00:59;4.47;;;2.93;;
5456;SDS011;2751;49.802;9.944;2022-07-19T04:03:27;4.67;;;3.23;;
5456;SDS011;2751;49.802;9.944;2022-07-19T04:05:54;10.67;;;3.40;;
5456;SDS011;2751;49.802;9.944;2022-07-19T04:08:21;9.23;;;3.57;;
5456;SDS011;2751;49.802;9.944;2022-07-19T04:10:48;14.13;;;10.33;;
5456;SDS011;2751;49.802;9.944;2022-07-19T04:13:16;2.90;;;2.73;;
5456;SDS011;2751;49.802;9.944;2022-07-19T04:15:43;6.73;;;3.03;;
5456;SDS011;2751;49.802;9.944;2022-07-19T04:18:10;3.00;;;2.70;;
5456;SDS011;2751;49.802;9.944;2022-07-19T04:20:37;3.40;;;3.03;;
5456;SDS011;2751;49.802;9.944;2022-07-19T04:23:04;5.13;;;3.37;;
5456;SDS011;2751;49.802;9.944;2022-07-19T04:25:30;7.53;;;3.37;;
5456;SDS011;2751;49.802;9.944;2022-07-19T04:27:57;6.57;;;3.20;;
5456;SDS011;2751;49.802;9.944;2022-07-19T04:30:26;7.80;;;3.43;;
5456;SDS011;2751;49.802;9.944;2022-07-19T04:32:53;5.03;;;3.27;;
5456;SDS011;2751;49.802;9.944;2022-07-19T04:35:20;4.57;;;3.40;;
5456;SDS011;2751;49.802;9.944;2022-07-19T04:37:47;4.27;;;3.30;;
5456;SDS011;2751;49.802;9.944;2022-07-19T04:40:14;5.03;;;2.93;;
5456;SDS011;2751;49.802;9.944;2022-07-19T04:42:41;6.83;;;3.33;;
5456;SDS011;2751;49.802;9.944;2022-07-19T04:45:08;5.27;;;3.83;;
5456;SDS011;2751;49.802;9.944;2022-07-19T04:47:37;11.87;;;3.73;;
5456;SDS011;2751;49.802;9.944;2022-07-19T04:50:04;7.50;;;4.77;;
5456;SDS011;2751;49.802;9.944;2022-07-19T04:52:32;6.00;;;3.60;;
5456;SDS011;2751;49.802;9.944;2022-07-19T04:54:59;6.63;;;3.60;;
5456;SDS011;2751;49.802;9.944;2022-07-19T04:57:26;4.10;;;3.20;;
5456;SDS011;2751;49.802;9.944;2022-07-19T04:59:53;7.20;;;3.60;;
5456;SDS011;2751;49.802;9.944;2022-07-19T05:02:20;4.63;;;3.80;;
5456;SDS011;2751;49.802;9.944;2022-07-19T05:04:48;5.00;;;3.63;;
5456;SDS011;2751;49.802;9.944;2022-07-19T05:07:15;5.33;;;3.10;;
5456;SDS011;2751;49.802;9.944;2022-07-19T05:09:42;13.33;;;3.37;;
5456;SDS011;2751;49.802;9.944;2022-07-19T05:12:10;11.10;;;3.30;;
5456;SDS011;2751;49.802;9.944;2022-07-19T05:14:37;6.30;;;3.40;;
5456;SDS011;2751;49.802;9.944;2022-07-19T05:17:04;4.57;;;2.90;;
5456;SDS011;2751;49.802;9.944;2022-07-19T05:19:31;5.60;;;3.73;;
5456;SDS011;2751;49.802;9.944;2022-07-19T05:21:59;6.73;;;3.57;;
5456;SDS011;2751;49.802;9.944;2022-07-19T05:24:26;11.30;;;7.20;;
5456;SDS011;2751;49.802;9.944;2022-07-19T05:26:53;7.60;;;4.30;;
5456;SDS011;2751;49.802;9.944;2022-07-19T05:29:20;7.30;;;4.07;;
5456;SDS011;2751;49.802;9.944;2022-07-19T05:31:47;5.87;;;3.30;;
5456;SDS011;2751;49.802;9.944;2022-07-19T05:34:14;5.53;;;3.63;;
5456;SDS011;2751;49.802;9.944;2022-07-19T05:36:41;4.67;;;3.60;;
5456;SDS011;2751;49.802;9.944;2022-07-19T05:39:09;9.83;;;4.43;;
5456;SDS011;2751;49.802;9.944;2022-07-19T05:41:36;5.90;;;4.33;;
5456;SDS011;2751;49.802;9.944;2022-07-19T05:44:03;8.03;;;3.43;;
5456;SDS011;2751;49.802;9.944;2022-07-19T05:46:30;4.70;;;3.20;;
5456;SDS011;2751;49.802;9.944;2022-07-19T05:48:57;7.70;;;4.37;;
5456;SDS011;2751;49.802;9.944;2022-07-19T05:51:24;8.30;;;6.07;;
5456;SDS011;2751;49.802;9.944;2022-07-19T05:53:51;11.17;;;3.80;;
5456;SDS011;2751;49.802;9.944;2022-07-19T05:56:19;11.03;;;4.73;;
5456;SDS011;2751;49.802;9.944;2022-07-19T05:58:46;6.77;;;4.30;;
5456;SDS011;2751;49.802;9.944;2022-07-19T06:01:13;5.53;;;3.60;;
5456;SDS011;2751;49.802;9.944;2022-07-19T06:03:48;8.77;;;3.90;;
5456;SDS011;2751;49.802;9.944;2022-07-19T06:06:17;7.10;;;3.37;;
5456;SDS011;2751;49.802;9.944;2022-07-19T06:08:44;6.33;;;3.70;;
5456;SDS011;2751;49.802;9.944;2022-07-19T06:11:11;4.77;;;3.47;;
5456;SDS011;2751;49.802;9.944;2022-07-19T06:13:40;6.73;;;3.90;;
5456;SDS011;2751;49.802;9.944;2022-07-19T06:16:08;7.23;;;3.97;;
5456;SDS011;2751;49.802;9.944;2022-07-19T06:18:36;6.07;;;4.43;;
5456;SDS011;2751;49.802;9.944;2022-07-19T06:21:04;13.20;;;4.33;;
5456;SDS011;2751;49.802;9.944;2022-07-19T06:23:34;11.93;;;4.13;;
5456;SDS011;2751;49.802;9.944;2022-07-19T06:26:01;6.50;;;4.57;;
5456;SDS011;2751;49.802;9.944;2022-07-19T06:28:28;3.50;;;3.20;;
5456;SDS011;2751;49.802;9.944;2022-07-19T06:30:56;6.90;;;3.33;;
5456;SDS011;2751;49.802;9.944;2022-07-19T06:33:23;11.13;;;3.67;;
5456;SDS011;2751;49.802;9.944;2022-07-19T06:35:50;5.73;;;3.97;;
5456;SDS011;2751;49.802;9.944;2022-07-19T06:38:18;4.40;;;3.30;;
5456;SDS011;2751;49.802;9.944;2022-07-19T06:40:45;5.90;;;4.00;;
5456;SDS011;2751;49.802;9.944;2022-07-19T06:43:12;6.60;;;3.80;;
5456;SDS011;2751;49.802;9.944;2022-07-19T06:45:38;5.40;;;3.47;;
5456;SDS011;2751;49.802;9.944;2022-07-19T06:48:07;3.93;;;3.43;;
5456;SDS011;2751;49.802;9.944;2022-07-19T06:50:34;12.33;;;3.50;;
5456;SDS011;2751;49.802;9.944;2022-07-19T06:53:01;4.77;;;3.10;;
5456;SDS011;2751;49.802;9.944;2022-07-19T06:55:28;7.77;;;4.63;;
5456;SDS011;2751;49.802;9.944;2022-07-19T06:57:55;6.70;;;4.07;;
5456;SDS011;2751;49.802;9.944;2022-07-19T07:00:22;9.73;;;3.90;;
5456;SDS011;2751;49.802;9.944;2022-07-19T07:02:49;3.80;;;3.50;;
5456;SDS011;2751;49.802;9.944;2022-07-19T07:05:17;4.13;;;3.20;;
5456;SDS011;2751;49.802;9.944;2022-07-19T07:07:44;4.33;;;3.37;;
5456;SDS011;2751;49.802;9.944;2022-07-19T07:10:13;5.20;;;3.53;;
5456;SDS011;2751;49.802;9.944;2022-07-19T07:12:39;9.50;;;3.87;;
5456;SDS011;2751;49.802;9.944;2022-07-19T07:15:07;6.93;;;3.53;;
5456;SDS011;2751;49.802;9.944;2022-07-19T07:17:34;7.30;;;3.53;;
5456;SDS011;2751;49.802;9.944;2022-07-19T07:20:02;4.63;;;3.10;;
5456;SDS011;2751;49.802;9.944;2022-07-19T07:22:33;4.30;;;3.63;;
5456;SDS011;2751;49.802;9.944;2022-07-19T07:25:00;6.87;;;3.43;;
5456;SDS011;2751;49.802;9.944;2022-07-19T07:27:28;4.37;;;3.30;;
5456;SDS011;2751;49.802;9.944;2022-07-19T07:29:55;6.30;;;4.40;;
5456;SDS011;2751;49.802;9.944;2022-07-19T07:32:22;7.03;;;4.73;;
5456;SDS011;2751;49.802;9.944;2022-07-19T07:34:51;7.33;;;3.03;;
5456;SDS011;2751;49.802;9.944;2022-07-19T07:37:18;5.50;;;3.53;;
5456;SDS011;2751;49.802;9.944;2022-07-19T07:39:47;8.77;;;3.20;;
5456;SDS011;2751;49.802;9.944;2022-07-19T07:42:14;3.77;;;3.40;;
5456;SDS011;2751;49.802;9.944;2022-07-19T07:44:41;3.77;;;3.30;;
5456;SDS011;2751;49.802;9.944;2022-07-19T07:47:08;6.60;;;3.47;;
5456;SDS011;2751;49.802;9.944;2022-07-19T07:49:35;7.87;;;3.63;;
5456;SDS011;2751;49.802;9.944;2022-07-19T07:52:03;12.13;;;3.70;;
5456;SDS011;2751;49.802;9.944;2022-07-19T07:54:30;3.97;;;3.47;;
5456;SDS011;2751;49.802;9.944;2022-07-19T07:56:59;8.80;;;3.43;;
5456;SDS011;2751;49.802;9.944;2022-07-19T07:59:25;3.87;;;3.30;;
5456;SDS011;2751;49.802;9.944;2022-07-19T08:01:52;6.60;;;3.23;;
5456;SDS011;2751;49.802;9.944;2022-07-19T08:04:19;7.23;;;3.47;;
5456;SDS011;2751;49.802;9.944;2022-07-19T08:06:46;4.50;;;3.20;;
5456;SDS011;2751;49.802;9.944;2022-07-19T08:09:14;4.27;;;3.97;;
5456;SDS011;2751;49.802;9.944;2022-07-19T08:11:41;4.53;;;3.80;;
5456;SDS011;2751;49.802;9.944;2022-07-19T08:14:09;8.70;;;3.80;;
5456;SDS011;2751;49.802;9.944;2022-07-19T08:16:36;6.37;;;3.13;;
5456;SDS011;2751;49.802;9.944;2022-07-19T08:19:03;4.07;;;2.90;;
5456;SDS011;2751;49.802;9.944;2022-07-19T08:21:30;5.00;;;3.97;;
5456;SDS011;2751;49.802;9.944;2022-07-19T08:23:57;5.50;;;3.00;;
5456;SDS011;2751;49.802;9.944;2022-07-19T08:26:24;5.80;;;3.17;;
5456;SDS011;2751;49.802;9.944;2022-07-19T08:28:51;4.00;;;3.70;;
5456;SDS011;2751;49.802;9.944;2022-07-19T08:31:19;6.30;;;3.10;;
5456;SDS011;2751;49.802;9.944;2022-07-19T08:33:46;10.93;;;3.60;;
5456;SDS011;2751;49.802;9.944;2022-07-19T08:36:13;12.30;;;3.33;;
5456;SDS011;2751;49.802;9.944;2022-07-19T08:38:40;3.90;;;3.60;;
5456;SDS011;2751;49.802;9.944;2022-07-19T08:41:07;8.13;;;4.30;;
5456;SDS011;2751;49.802;9.944;2022-07-19T08:43:35;8.93;;;4.53;;
5456;SDS011;2751;49.802;9.944;2022-07-19T08:46:02;10.77;;;3.33;;
5456;SDS011;2751;49.802;9.944;2022-07-19T08:48:31;3.37;;;2.90;;
5456;SDS011;2751;49.802;9.944;2022-07-19T08:50:59;2.93;;;2.73;;
5456;SDS011;2751;49.802;9.944;2022-07-19T08:53:30;3.20;;;2.90;;
5456;SDS011;2751;49.802;9.944;2022-07-19T08:55:58;4.80;;;3.60;;
5456;SDS011;2751;49.802;9.944;2022-07-19T08:58:25;4.43;;;2.70;;
5456;SDS011;2751;49.802;9.944;2022-07-19T09:00:52;5.47;;;2.93;;
5456;SDS011;2751;49.802;9.944;2022-07-19T09:03:18;3.40;;;3.10;;
5456;SDS011;2751;49.802;9.944;2022-07-19T09:05:47;5.23;;;2.97;;
5456;SDS011;2751;49.802;9.944;2022-07-19T09:08:28;4.40;;;2.80;;
5456;SDS011;2751;49.802;9.944;2022-07-19T09:10:55;5.80;;;2.90;;
5456;SDS011;2751;49.802;9.944;2022-07-19T09:13:36;7.80;;;3.60;;
5456;SDS011;2751;49.802;9.944;2022-07-19T09:16:03;3.53;;;3.07;;
5456;SDS011;2751;49.802;9.944;2022-07-19T09:18:31;2.83;;;2.63;;
5456;SDS011;2751;49.802;9.944;2022-07-19T09:21:02;7.60;;;4.03;;
5456;SDS011;2751;49.802;9.944;2022-07-19T09:23:30;3.97;;;2.73;;
5456;SDS011;2751;49.802;9.944;2022-07-19T09:25:58;3.50;;;2.57;;
5456;SDS011;2751;49.802;9.944;2022-07-19T09:28:26;4.67;;;2.53;;
5456;SDS011;2751;49.802;9.944;2022-07-19T09:30:55;8.77;;;2.57;;
5456;SDS011;2751;49.802;9.944;2022-07-19T09:33:24;4.07;;;2.27;;
5456;SDS011;2751;49.802;9.944;2022-07-19T09:35:53;9.57;;;2.03;;
5456;SDS011;2751;49.802;9.944;2022-07-19T09:38:26;2.40;;;2.20;;
5456;SDS011;2751;49.802;9.944;2022-07-19T09:41:07;7.77;;;2.20;;
5456;SDS011;2751;49.802;9.944;2022-07-19T09:43:47;4.47;;;2.30;;
5456;SDS011;2751;49.802;9.944;2022-07-19T09:46:26;2.83;;;2.60;;
5456;SDS011;2751;49.802;9.944;2022-07-19T09:48:54;5.30;;;2.10;;
5456;SDS011;2751;49.802;9.944;2022-07-19T09:51:32;2.40;;;2.30;;
5456;SDS011;2751;49.802;9.944;2022-07-19T09:54:03;3.90;;;2.10;;
5456;SDS011;2751;49.802;9.944;2022-07-19T09:56:31;2.63;;;2.43;;
5456;SDS011;2751;49.802;9.944;2022-07-19T09:58:58;5.30;;;2.10;;
5456;SDS011;2751;49.802;9.944;2022-07-19T10:01:26;4.53;;;2.50;;
5456;SDS011;2751;49.802;9.944;2022-07-19T10:03:54;3.43;;;2.40;;
5456;SDS011;2751;49.802;9.944;2022-07-19T10:06:24;2.37;;;2.27;;
5456;SDS011;2751;49.802;9.944;2022-07-19T10:08:52;5.17;;;2.60;;
5456;SDS011;2751;49.802;9.944;2022-07-19T10:11:21;6.37;;;2.67;;
5456;SDS011;2751;49.802;9.944;2022-07-19T10:13:48;4.73;;;2.73;;
5456;SDS011;2751;49.802;9.944;2022-07-19T10:16:17;3.37;;;3.07;;
5456;SDS011;2751;49.802;9.944;2022-07-19T10:18:52;2.20;;;2.10;;
5456;SDS011;2751;49.802;9.944;2022-07-19T10:21:28;3.90;;;2.73;;
5456;SDS011;2751;49.802;9.944;2022-07-19T10:23:56;7.80;;;1.90;;
5456;SDS011;2751;49.802;9.944;2022-07-19T10:26:34;3.23;;;2.27;;
5456;SDS011;2751;49.802;9.944;2022-07-19T10:29:07;1.80;;;1.70;;
5456;SDS011;2751;49.802;9.944;2022-07-19T10:31:35;2.17;;;2.07;;
5456;SDS011;2751;49.802;9.944;2022-07-19T10:34:03;2.10;;;2.00;;
5456;SDS011;2751;49.802;9.944;2022-07-19T10:36:36;2.13;;;1.93;;
5456;SDS011;2751;49.802;9.944;2022-07-19T10:39:23;4.20;;;2.27;;
5456;SDS011;2751;49.802;9.944;2022-07-19T10:42:11;2.30;;;2.00;;
5456;SDS011;2751;49.802;9.944;2022-07-19T10:50:41;2.30;;;2.20;;
5456;SDS011;2751;49.802;9.944;2022-07-19T10:53:09;1.93;;;1.83;;
5456;SDS011;2751;49.802;9.944;2022-07-19T10:55:36;4.47;;;2.10;;
5456;SDS011;2751;49.802;9.944;2022-07-19T10:58:13;1.90;;;1.80;;
5456;SDS011;2751;49.802;9.944;2022-07-19T11:00:41;2.50;;;1.90;;
5456;SDS011;2751;49.802;9.944;2022-07-19T11:05:55;2.93;;;2.10;;
5456;SDS011;2751;49.802;9.944;2022-07-19T11:08:32;4.47;;;1.90;;
5456;SDS011;2751;49.802;9.944;2022-07-19T11:11:04;2.10;;;2.00;;
5456;SDS011;2751;49.802;9.944;2022-07-19T11:13:34;2.50;;;1.90;;
5456;SDS011;2751;49.802;9.944;2022-07-19T11:16:02;2.23;;;1.97;;
5456;SDS011;2751;49.802;9.944;2022-07-19T11:18:30;2.10;;;2.00;;
5456;SDS011;2751;49.802;9.944;2022-07-19T11:20:57;2.17;;;1.93;;
5456;SDS011;2751;49.802;9.944;2022-07-19T11:23:27;3.03;;;2.83;;
5456;SDS011;2751;49.802;9.944;2022-07-19T11:26:04;1.70;;;1.60;;
5456;SDS011;2751;49.802;9.944;2022-07-19T11:28:34;4.20;;;2.20;;
5456;SDS011;2751;49.802;9.944;2022-07-19T11:31:10;3.27;;;2.40;;
5456;SDS011;2751;49.802;9.944;2022-07-19T11:33:38;2.13;;;2.03;;
5456;SDS011;2751;49.802;9.944;2022-07-19T11:36:06;4.27;;;3.30;;
5456;SDS011;2751;49.802;9.944;2022-07-19T11:38:36;1.80;;;1.80;;
5456;SDS011;2751;49.802;9.944;2022-07-19T11:41:07;2.17;;;1.97;;
5456;SDS011;2751;49.802;9.944;2022-07-19T11:43:38;1.80;;;1.70;;
5456;SDS011;2751;49.802;9.944;2022-07-19T11:46:05;4.20;;;1.87;;
5456;SDS011;2751;49.802;9.944;2022-07-19T11:48:32;1.90;;;1.70;;
5456;SDS011;2751;49.802;9.944;2022-07-19T11:51:00;1.70;;;1.60;;
5456;SDS011;2751;49.802;9.944;2022-07-19T11:53:28;1.70;;;1.57;;
5456;SDS011;2751;49.802;9.944;2022-07-19T11:55:56;3.27;;;2.00;;
5456;SDS011;2751;49.802;9.944;2022-07-19T11:58:23;1.77;;;1.67;;
5456;SDS011;2751;49.802;9.944;2022-07-19T12:00:52;2.00;;;1.90;;
5456;SDS011;2751;49.802;9.944;2022-07-19T12:03:25;1.60;;;1.60;;
5456;SDS011;2751;49.802;9.944;2022-07-19T12:05:56;1.93;;;1.83;;
5456;SDS011;2751;49.802;9.944;2022-07-19T12:08:31;2.00;;;1.90;;
5456;SDS011;2751;49.802;9.944;2022-07-19T12:10:59;2.53;;;2.10;;
5456;SDS011;2751;49.802;9.944;2022-07-19T12:13:27;1.70;;;1.60;;
5456;SDS011;2751;49.802;9.944;2022-07-19T12:15:58;2.70;;;1.83;;
5456;SDS011;2751;49.802;9.944;2022-07-19T12:18:42;2.50;;;2.10;;
5456;SDS011;2751;49.802;9.944;2022-07-19T12:21:15;2.07;;;1.97;;
5456;SDS011;2751;49.802;9.944;2022-07-19T12:26:39;2.10;;;2.00;;
5456;SDS011;2751;49.802;9.944;2022-07-19T12:29:16;2.23;;;2.00;;
5456;SDS011;2751;49.802;9.944;2022-07-19T12:31:46;2.33;;;2.10;;
5456;SDS011;2751;49.802;9.944;2022-07-19T12:34:14;2.20;;;1.97;;
5456;SDS011;2751;49.802;9.944;2022-07-19T12:36:41;3.37;;;2.00;;
5456;SDS011;2751;49.802;9.944;2022-07-19T12:39:16;2.80;;;2.03;;
5456;SDS011;2751;49.802;9.944;2022-07-19T12:41:52;2.07;;;1.97;;
5456;SDS011;2751;49.802;9.944;2022-07-19T12:44:31;3.70;;;2.10;;
5456;SDS011;2751;49.802;9.944;2022-07-19T12:47:01;2.50;;;2.10;;
5456;SDS011;2751;49.802;9.944;2022-07-19T12:49:41;2.23;;;1.93;;
5456;SDS011;2751;49.802;9.944;2022-07-19T12:52:09;2.93;;;2.00;;
5456;SDS011;2751;49.802;9.944;2022-07-19T12:54:36;2.23;;;1.80;;
5456;SDS011;2751;49.802;9.944;2022-07-19T12:57:04;2.40;;;2.30;;
5456;SDS011;2751;49.802;9.944;2022-07-19T12:59:31;2.87;;;1.60;;
5456;SDS011;2751;49.802;9.944;2022-07-19T13:02:08;1.70;;;1.70;;
5456;SDS011;2751;49.802;9.944;2022-07-19T13:04:37;2.83;;;1.97;;
5456;SDS011;2751;49.802;9.944;2022-07-19T13:07:04;2.47;;;2.27;;
5456;SDS011;2751;49.802;9.944;2022-07-19T13:09:32;2.50;;;1.83;;
5456;SDS011;2751;49.802;9.944;2022-07-19T13:11:59;3.50;;;3.20;;
5456;SDS011;2751;49.802;9.944;2022-07-19T13:14:27;2.90;;;2.70;;
5456;SDS011;2751;49.802;9.944;2022-07-19T13:16:54;2.00;;;1.80;;
5456;SDS011;2751;49.802;9.944;2022-07-19T13:19:23;2.50;;;2.10;;
5456;SDS011;2751;49.802;9.944;2022-07-19T13:21:51;1.90;;;1.73;;
5456;SDS011;2751;49.802;9.944;2022-07-19T13:24:19;2.70;;;1.93;;
5456;SDS011;2751;49.802;9.944;2022-07-19T13:26:46;2.07;;;1.87;;
5456;SDS011;2751;49.802;9.944;2022-07-19T13:29:13;4.10;;;2.20;;
5456;SDS011;2751;49.802;9.944;2022-07-19T13:31:41;5.47;;;2.07;;
5456;SDS011;2751;49.802;9.944;2022-07-19T13:34:08;2.50;;;2.30;;
5456;SDS011;2751;49.802;9.944;2022-07-19T13:36:38;2.67;;;2.43;;
5456;SDS011;2751;49.802;9.944;2022-07-19T13:39:05;3.30;;;2.00;;
5456;SDS011;2751;49.802;9.944;2022-07-19T13:41:34;2.50;;;2.40;;
5456;SDS011;2751;49.802;9.944;2022-07-19T13:44:01;3.37;;;2.10;;
5456;SDS011;2751;49.802;9.944;2022-07-19T13:46:29;2.30;;;2.17;;
5456;SDS011;2751;49.802;9.944;2022-07-19T13:48:57;4.77;;;2.10;;
5456;SDS011;2751;49.802;9.944;2022-07-19T13:51:24;2.20;;;2.10;;
5456;SDS011;2751;49.802;9.944;2022-07-19T13:53:53;3.23;;;2.10;;
5456;SDS011;2751;49.802;9.944;2022-07-19T13:56:21;2.17;;;1.97;;
5456;SDS011;2751;49.802;9.944;2022-07-19T13:58:48;3.37;;;1.80;;
5456;SDS011;2751;49.802;9.944;2022-07-19T14:01:15;2.03;;;1.93;;
5456;SDS011;2751;49.802;9.944;2022-07-19T14:03:43;2.10;;;1.97;;
5456;SDS011;2751;49.802;9.944;2022-07-19T14:06:11;3.37;;;2.13;;
5456;SDS011;2751;49.802;9.944;2022-07-19T14:08:38;1.43;;;1.43;;
5456;SDS011;2751;49.802;9.944;2022-07-19T14:11:07;2.40;;;2.10;;
5456;SDS011;2751;49.802;9.944;2022-07-19T14:13:34;4.30;;;1.97;;
5456;SDS011;2751;49.802;9.944;2022-07-19T14:16:01;4.10;;;2.13;;
5456;SDS011;2751;49.802;9.944;2022-07-19T14:18:29;3.17;;;2.17;;
5456;SDS011;2751;49.802;9.944;2022-07-19T14:20:56;3.30;;;2.30;;
5456;SDS011;2751;49.802;9.944;2022-07-19T14:23:23;1.90;;;1.80;;
5456;SDS011;2751;49.802;9.944;2022-07-19T14:25:50;2.07;;;2.00;;
5456;SDS011;2751;49.802;9.944;2022-07-19T14:28:18;2.37;;;2.00;;
5456;SDS011;2751;49.802;9.944;2022-07-19T14:30:45;2.20;;;2.10;;
5456;SDS011;2751;49.802;9.944;2022-07-19T14:33:12;2.40;;;2.20;;
5456;SDS011;2751;49.802;9.944;2022-07-19T14:35:39;2.13;;;2.03;;
5456;SDS011;2751;49.802;9.944;2022-07-19T14:38:06;2.27;;;2.17;;
5456;SDS011;2751;49.802;9.944;2022-07-19T14:40:34;2.30;;;2.10;;
5456;SDS011;2751;49.802;9.944;2022-07-19T14:43:01;2.70;;;2.20;;
5456;SDS011;2751;49.802;9.944;2022-07-19T14:45:31;3.33;;;2.33;;
5456;SDS011;2751;49.802;9.944;2022-07-19T14:47:58;2.10;;;2.00;;
5456;SDS011;2751;49.802;9.944;2022-07-19T14:50:24;2.13;;;2.03;;
5456;SDS011;2751;49.802;9.944;2022-07-19T14:52:52;2.90;;;2.10;;
5456;SDS011;2751;49.802;9.944;2022-07-19T14:55:19;3.13;;;1.90;;
5456;SDS011;2751;49.802;9.944;2022-07-19T14:57:46;2.60;;;2.30;;
5456;SDS011;2751;49.802;9.944;2022-07-19T15:00:13;4.83;;;2.00;;
5456;SDS011;2751;49.802;9.944;2022-07-19T15:02:41;2.43;;;2.33;;
5456;SDS011;2751;49.802;9.944;2022-07-19T15:05:08;4.10;;;2.50;;
5456;SDS011;2751;49.802;9.944;2022-07-19T15:07:36;3.37;;;2.20;;
5456;SDS011;2751;49.802;9.944;2022-07-19T15:10:03;2.30;;;2.10;;
5456;SDS011;2751;49.802;9.944;2022-07-19T15:12:30;2.50;;;2.40;;
5456;SDS011;2751;49.802;9.944;2022-07-19T15:14:57;2.90;;;2.00;;
5456;SDS011;2751;49.802;9.944;2022-07-19T15:17:25;2.50;;;2.27;;
5456;SDS011;2751;49.802;9.944;2022-07-19T15:19:53;2.37;;;2.17;;
5456;SDS011;2751;49.802;9.944;2022-07-19T15:22:20;2.60;;;2.50;;
5456;SDS011;2751;49.802;9.944;2022-07-19T15:24:48;3.53;;;2.20;;
5456;SDS011;2751;49.802;9.944;2022-07-19T15:27:15;3.17;;;2.87;;
5456;SDS011;2751;49.802;9.944;2022-07-19T15:29:42;5.90;;;2.20;;
5456;SDS011;2751;49.802;9.944;2022-07-19T15:32:09;2.33;;;2.23;;